createdAt,value
2017-10-05T00:02:13.004Z,55.10
2017-10-05T00:04:40.554Z,55.10
2017-10-05T00:07:08.064Z,55.00
2017-10-05T00:09:35.954Z,55.00
2017-10-05T00:12:03.487Z,54.90
2017-10-05T00:14:31.771Z,54.90
2017-10-05T00:16:59.344Z,54.90
2017-10-05T00:19:27.630Z,54.80
2017-10-05T00:21:55.201Z,54.80
2017-10-05T00:24:22.717Z,54.90
2017-10-05T00:26:51.005Z,54.90
2017-10-05T00:29:19.308Z,54.90
2017-10-05T00:31:46.823Z,54.90
2017-10-05T00:34:15.440Z,54.90
2017-10-05T00:36:42.955Z,54.40
2017-10-05T00:39:10.470Z,54.80
2017-10-05T00:41:38.020Z,54.80
2017-10-05T00:44:05.555Z,54.90
2017-10-05T00:46:34.139Z,54.80
2017-10-05T00:49:02.451Z,54.80
2017-10-05T00:51:29.962Z,54.80
2017-10-05T00:53:57.495Z,54.90
2017-10-05T00:56:25.045Z,54.90
2017-10-05T00:58:52.901Z,55.00
2017-10-05T01:01:20.445Z,54.90
2017-10-05T01:03:47.964Z,55.00
2017-10-05T01:06:15.500Z,55.00
2017-10-05T01:08:43.019Z,55.20
2017-10-05T01:11:10.915Z,55.10
2017-10-05T01:13:38.448Z,55.20
2017-10-05T01:16:05.972Z,55.20
2017-10-05T01:18:33.517Z,55.30
2017-10-05T01:21:01.053Z,55.30
2017-10-05T01:23:28.893Z,55.40
2017-10-05T01:25:56.421Z,55.50
2017-10-05T01:28:23.936Z,55.50
2017-10-05T01:30:51.469Z,55.50
2017-10-05T01:33:18.996Z,55.50
2017-10-05T01:35:46.940Z,55.50
2017-10-05T01:38:14.460Z,55.60
2017-10-05T01:40:41.999Z,55.60
2017-10-05T01:43:10.306Z,55.60
2017-10-05T01:45:37.827Z,55.60
2017-10-05T01:48:05.647Z,55.70
2017-10-05T01:50:33.180Z,55.60
2017-10-05T01:53:01.452Z,55.80
2017-10-05T01:55:29.771Z,55.80
2017-10-05T01:57:57.289Z,55.80
2017-10-05T02:00:25.652Z,55.80
2017-10-05T02:02:53.187Z,55.80
2017-10-05T02:05:20.716Z,55.80
2017-10-05T02:07:48.254Z,55.80
2017-10-05T02:10:16.532Z,55.90
2017-10-05T02:12:45.131Z,55.90
2017-10-05T02:15:12.647Z,55.90
2017-10-05T02:17:40.161Z,55.90
2017-10-05T02:20:07.722Z,56.00
2017-10-05T02:22:35.242Z,56.00
2017-10-05T02:25:03.855Z,56.00
2017-10-05T02:27:31.409Z,56.10
2017-10-05T02:29:58.938Z,56.70
2017-10-05T02:32:26.506Z,56.10
2017-10-05T02:34:54.788Z,56.20
2017-10-05T02:37:23.514Z,56.20
2017-10-05T02:39:51.029Z,56.20
2017-10-05T02:42:19.316Z,56.30
2017-10-05T02:44:47.612Z,56.30
2017-10-05T02:47:15.135Z,56.30
2017-10-05T02:49:42.695Z,56.40
2017-10-05T02:52:10.211Z,56.50
2017-10-05T02:54:37.744Z,56.50
2017-10-05T02:57:06.057Z,56.70
2017-10-05T02:59:33.583Z,56.60
2017-10-05T03:02:02.154Z,56.70
2017-10-05T03:04:30.445Z,56.80
2017-10-05T03:06:58.735Z,56.80
2017-10-05T03:09:26.292Z,56.90
2017-10-05T03:11:53.827Z,56.90
2017-10-05T03:14:22.467Z,56.90
2017-10-05T03:16:49.981Z,56.90
2017-10-05T03:19:18.263Z,57.00
2017-10-05T03:21:46.568Z,57.00
2017-10-05T03:24:14.087Z,57.10
2017-10-05T03:26:42.425Z,57.10
2017-10-05T03:29:09.935Z,57.10
2017-10-05T03:31:38.231Z,57.10
2017-10-05T03:34:05.780Z,57.10
2017-10-05T03:36:34.063Z,57.20
2017-10-05T03:39:01.627Z,57.30
2017-10-05T03:41:29.149Z,57.30
2017-10-05T03:43:56.674Z,57.30
2017-10-05T03:46:24.237Z,57.40
2017-10-05T03:48:51.761Z,57.40
2017-10-05T03:51:19.342Z,57.40
2017-10-05T03:53:46.920Z,57.50
2017-10-05T03:56:14.463Z,57.60
2017-10-05T03:58:42.013Z,57.60
2017-10-05T04:01:09.569Z,57.60
2017-10-05T04:03:37.480Z,57.70
2017-10-05T04:06:05.020Z,57.80
2017-10-05T04:08:32.531Z,57.80
2017-10-05T04:11:00.840Z,58.40
2017-10-05T04:13:28.379Z,58.10
2017-10-05T04:15:56.713Z,58.30
2017-10-05T04:18:24.238Z,58.40
2017-10-05T04:20:51.783Z,58.50
2017-10-05T04:23:20.103Z,58.80
2017-10-05T04:25:47.617Z,58.90
2017-10-05T04:28:16.336Z,59.00
2017-10-05T04:30:43.869Z,59.00
2017-10-05T04:33:11.395Z,59.20
2017-10-05T04:35:38.933Z,60.00
2017-10-05T04:38:06.452Z,59.60
2017-10-05T04:40:34.299Z,59.70
2017-10-05T04:43:02.617Z,60.00
2017-10-05T04:45:30.134Z,60.00
2017-10-05T04:47:57.688Z,60.10
2017-10-05T04:50:25.199Z,60.30
2017-10-05T04:52:53.009Z,60.40
2017-10-05T04:55:20.526Z,60.60
2017-10-05T04:57:48.047Z,61.30
2017-10-05T05:00:16.364Z,62.30
2017-10-05T05:02:43.892Z,62.30
2017-10-05T05:05:12.222Z,63.40
2017-10-05T05:07:39.770Z,63.40
2017-10-05T05:10:07.291Z,64.20
2017-10-05T05:12:35.614Z,65.60
2017-10-05T05:15:03.140Z,65.70
2017-10-05T05:17:30.707Z,66.10
2017-10-05T05:19:58.255Z,66.80
2017-10-05T05:22:26.549Z,67.40
2017-10-05T05:24:54.100Z,67.50
2017-10-05T05:27:21.609Z,67.80
2017-10-05T05:29:49.200Z,68.00
2017-10-05T05:32:17.507Z,68.40
2017-10-05T05:34:45.018Z,68.30
2017-10-05T05:37:12.552Z,68.60
2017-10-05T05:39:40.325Z,68.80
2017-10-05T05:42:08.151Z,68.90
2017-10-05T05:44:36.368Z,69.20
2017-10-05T05:47:03.891Z,69.30
2017-10-05T05:49:31.461Z,69.60
2017-10-05T05:51:58.972Z,69.90
2017-10-05T05:54:26.815Z,70.10
2017-10-05T05:56:54.370Z,70.50
2017-10-05T05:59:22.730Z,71.10
2017-10-05T06:01:50.294Z,71.00
2017-10-05T06:04:17.830Z,71.30
2017-10-05T06:06:45.754Z,71.60
2017-10-05T06:09:13.272Z,71.80
2017-10-05T06:11:40.803Z,72.00
2017-10-05T06:14:09.138Z,72.30
2017-10-05T06:16:36.677Z,72.30
2017-10-05T06:19:04.255Z,72.40
2017-10-05T06:21:31.772Z,72.60
2017-10-05T06:23:59.316Z,72.60
2017-10-05T06:26:27.641Z,72.90
2017-10-05T06:28:55.188Z,72.90
2017-10-05T06:31:23.197Z,73.00
2017-10-05T06:33:50.748Z,73.00
2017-10-05T06:36:18.264Z,73.10
2017-10-05T06:38:45.830Z,73.30
2017-10-05T06:41:14.121Z,73.60
2017-10-05T06:43:41.685Z,73.70
2017-10-05T06:46:09.199Z,73.80
2017-10-05T06:48:36.812Z,73.90
2017-10-05T06:51:04.362Z,74.00
2017-10-05T06:53:31.898Z,74.20
2017-10-05T06:56:00.246Z,74.20
2017-10-05T06:58:27.756Z,74.30
2017-10-05T07:00:55.310Z,74.20
2017-10-05T07:03:22.866Z,74.20
2017-10-05T07:05:51.169Z,74.30
2017-10-05T07:08:19.039Z,74.40
2017-10-05T07:10:46.565Z,74.30
2017-10-05T07:13:14.097Z,74.40
2017-10-05T07:15:41.643Z,74.30
2017-10-05T07:18:09.167Z,74.30
2017-10-05T07:20:37.056Z,74.30
2017-10-05T07:23:04.612Z,74.40
2017-10-05T07:25:32.119Z,74.50
2017-10-05T07:27:59.687Z,74.60
2017-10-05T07:30:27.987Z,74.50
2017-10-05T07:32:55.548Z,74.60
2017-10-05T07:35:23.077Z,74.40
2017-10-05T07:37:50.602Z,74.60
2017-10-05T07:40:18.143Z,74.60
2017-10-05T07:42:45.673Z,74.50
2017-10-05T07:45:14.295Z,74.40
2017-10-05T07:47:41.887Z,74.40
2017-10-05T07:50:09.398Z,74.40
2017-10-05T07:52:36.946Z,74.40
2017-10-05T07:55:05.232Z,74.40
2017-10-05T07:57:33.123Z,74.40
2017-10-05T08:00:00.635Z,74.50
2017-10-05T08:02:28.150Z,74.70
2017-10-05T08:04:55.695Z,74.70
2017-10-05T08:07:23.215Z,74.50
2017-10-05T08:09:50.786Z,74.60
2017-10-05T08:12:19.082Z,74.80
2017-10-05T08:14:46.600Z,74.80
2017-10-05T08:17:14.176Z,75.70
2017-10-05T08:19:41.703Z,75.10
2017-10-05T08:22:09.259Z,75.20
2017-10-05T08:24:36.774Z,75.40
2017-10-05T08:27:04.295Z,75.40
2017-10-05T08:29:31.839Z,75.60
2017-10-05T08:31:59.342Z,75.50
2017-10-05T08:34:27.951Z,75.50
2017-10-05T08:36:55.473Z,75.50
2017-10-05T08:39:22.987Z,75.50
2017-10-05T08:41:50.559Z,76.30
2017-10-05T08:44:18.070Z,75.50
2017-10-05T08:46:46.392Z,75.60
2017-10-05T08:49:13.914Z,75.60
2017-10-05T08:51:41.463Z,75.70
2017-10-05T08:54:09.782Z,75.20
2017-10-05T08:56:37.327Z,75.20
2017-10-05T08:59:05.306Z,75.40
2017-10-05T09:01:32.867Z,75.30
2017-10-05T09:04:00.399Z,75.50
2017-10-05T09:06:28.707Z,75.30
2017-10-05T09:08:56.227Z,75.30
2017-10-05T09:11:24.077Z,75.60
2017-10-05T09:13:51.591Z,75.70
2017-10-05T09:16:19.141Z,75.90
2017-10-05T09:18:47.532Z,75.50
2017-10-05T09:21:15.080Z,75.60
2017-10-05T09:23:42.911Z,75.90
2017-10-05T09:26:10.451Z,75.90
2017-10-05T09:28:37.999Z,75.90
2017-10-05T09:31:05.867Z,75.80
2017-10-05T09:33:33.403Z,76.00
2017-10-05T09:36:01.377Z,76.10
2017-10-05T09:38:28.898Z,76.20
2017-10-05T09:40:57.198Z,76.50
2017-10-05T09:43:24.738Z,77.30
2017-10-05T09:45:53.029Z,76.70
2017-10-05T09:48:21.384Z,76.90
2017-10-05T09:50:49.696Z,77.10
2017-10-05T09:53:17.236Z,77.10
2017-10-05T09:55:45.556Z,77.40
2017-10-05T09:58:13.075Z,77.40
2017-10-05T10:00:41.402Z,77.80
2017-10-05T10:03:08.945Z,77.80
2017-10-05T10:05:36.458Z,77.90
2017-10-05T10:08:04.799Z,78.20
2017-10-05T10:10:32.307Z,78.30
2017-10-05T10:13:00.657Z,78.40
2017-10-05T10:15:28.203Z,78.40
2017-10-05T10:17:55.742Z,78.50
2017-10-05T10:20:23.320Z,78.40
2017-10-05T10:22:50.892Z,78.30
2017-10-05T10:25:18.450Z,78.20
2017-10-05T10:27:45.955Z,78.20
2017-10-05T10:30:14.250Z,77.70
2017-10-05T10:32:41.788Z,77.70
2017-10-05T10:35:10.096Z,77.80
2017-10-05T10:37:37.664Z,77.80
2017-10-05T10:40:05.189Z,77.60
2017-10-05T10:42:33.528Z,77.30
2017-10-05T10:45:01.103Z,77.40
2017-10-05T10:47:28.647Z,77.20
2017-10-05T10:49:56.213Z,77.00
2017-10-05T10:52:23.750Z,76.90
2017-10-05T10:54:51.323Z,76.60
2017-10-05T10:57:18.880Z,76.50
2017-10-05T10:59:46.406Z,76.50
2017-10-05T11:02:13.971Z,76.30
2017-10-05T11:04:41.533Z,75.80
2017-10-05T11:07:09.101Z,75.80
2017-10-05T11:09:36.648Z,75.70
2017-10-05T11:12:05.120Z,75.60
2017-10-05T11:14:33.430Z,75.30
2017-10-05T11:17:01.013Z,75.10
2017-10-05T11:19:28.557Z,75.00
2017-10-05T11:21:56.149Z,74.90
2017-10-05T11:24:23.748Z,74.60
2017-10-05T11:26:52.071Z,74.60
2017-10-05T11:29:19.583Z,74.60
2017-10-05T11:31:48.097Z,75.30
2017-10-05T11:34:19.478Z,75.30
2017-10-05T11:36:47.053Z,75.50
2017-10-05T11:39:14.581Z,76.70
2017-10-05T11:41:42.140Z,76.30
2017-10-05T11:44:09.661Z,76.70
2017-10-05T11:46:38.296Z,77.20
2017-10-05T11:49:05.821Z,77.30
2017-10-05T11:51:33.364Z,77.60
2017-10-05T11:54:01.700Z,78.20
2017-10-05T11:56:29.234Z,78.20
2017-10-05T11:58:56.782Z,78.30
2017-10-05T12:01:24.300Z,78.30
2017-10-05T12:03:51.835Z,78.40
2017-10-05T12:06:19.357Z,78.10
2017-10-05T12:08:46.917Z,78.20
2017-10-05T12:11:14.490Z,78.00
2017-10-05T12:13:42.054Z,77.50
2017-10-05T12:16:09.566Z,76.90
2017-10-05T12:18:37.123Z,76.70
2017-10-05T12:21:04.654Z,76.30
2017-10-05T12:23:32.204Z,75.90
2017-10-05T12:25:59.750Z,75.60
2017-10-05T12:28:27.299Z,75.10
2017-10-05T12:30:54.839Z,75.00
2017-10-05T12:33:23.158Z,74.60
2017-10-05T12:35:50.685Z,74.60
2017-10-05T12:38:18.995Z,74.10
2017-10-05T12:40:46.564Z,74.00
2017-10-05T12:43:14.135Z,73.50
2017-10-05T12:45:41.655Z,74.10
2017-10-05T12:48:09.460Z,72.80
2017-10-05T12:50:36.995Z,72.60
2017-10-05T12:53:04.532Z,71.80
2017-10-05T12:55:33.188Z,70.50
2017-10-05T12:58:00.767Z,70.50
2017-10-05T13:00:29.089Z,69.30
2017-10-05T13:02:56.965Z,69.30
2017-10-05T13:05:24.505Z,69.10
2017-10-05T13:07:52.027Z,68.80
2017-10-05T13:10:19.859Z,68.40
2017-10-05T13:12:47.394Z,68.80
2017-10-05T13:15:14.939Z,67.80
2017-10-05T13:17:43.549Z,66.80
2017-10-05T13:20:11.874Z,66.40
2017-10-05T13:22:39.409Z,66.40
2017-10-05T13:25:07.261Z,65.90
2017-10-05T13:27:34.787Z,65.60
2017-10-05T13:30:03.127Z,64.40
2017-10-05T13:32:30.680Z,64.30
2017-10-05T13:34:58.200Z,64.20
2017-10-05T13:37:25.742Z,64.10
2017-10-05T13:39:54.046Z,64.10
2017-10-05T13:42:21.579Z,64.10
2017-10-05T13:44:49.876Z,64.10
2017-10-05T13:47:18.259Z,64.30
2017-10-05T13:49:45.816Z,64.30
2017-10-05T13:52:13.352Z,64.60
2017-10-05T13:54:41.670Z,65.70
2017-10-05T13:57:09.288Z,65.80
2017-10-05T13:59:37.713Z,68.00
2017-10-05T14:02:05.272Z,68.00
2017-10-05T14:04:33.153Z,66.20
2017-10-05T14:07:01.241Z,64.60
2017-10-05T14:09:28.813Z,63.80
2017-10-05T14:11:56.348Z,63.70
2017-10-05T14:14:23.955Z,63.70
2017-10-05T14:16:52.260Z,63.30
2017-10-05T14:19:19.865Z,63.10
2017-10-05T14:21:47.449Z,62.90
2017-10-05T14:24:15.093Z,62.40
2017-10-05T14:26:42.627Z,62.40
2017-10-05T14:29:10.200Z,62.30
2017-10-05T14:31:37.718Z,61.80
2017-10-05T14:34:06.420Z,61.80
2017-10-05T14:36:34.164Z,61.80
2017-10-05T14:39:02.472Z,61.80
2017-10-05T14:41:30.011Z,61.90
2017-10-05T14:43:58.346Z,62.80
2017-10-05T14:46:25.867Z,62.70
2017-10-05T14:48:53.416Z,64.70
2017-10-05T14:51:20.938Z,67.90
2017-10-05T14:53:49.420Z,70.00
2017-10-05T14:56:16.940Z,71.30
2017-10-05T14:58:44.596Z,72.50
2017-10-05T15:01:12.138Z,73.70
2017-10-05T15:03:40.854Z,74.80
2017-10-05T15:06:08.404Z,75.50
2017-10-05T15:08:35.954Z,75.90
2017-10-05T15:11:03.549Z,75.70
2017-10-05T15:13:31.069Z,75.30
2017-10-05T15:15:59.640Z,74.70
2017-10-05T15:18:27.195Z,74.00
2017-10-05T15:20:55.539Z,73.20
2017-10-05T15:23:23.112Z,73.30
2017-10-05T15:25:50.712Z,73.00
2017-10-05T15:28:18.251Z,72.40
2017-10-05T15:30:45.853Z,71.30
2017-10-05T15:33:13.387Z,69.70
2017-10-05T15:35:41.713Z,66.90
2017-10-05T15:38:09.276Z,66.90
2017-10-05T15:40:36.836Z,66.10
2017-10-05T15:43:04.451Z,65.60
2017-10-05T15:45:32.008Z,65.10
2017-10-05T15:48:00.280Z,64.60
2017-10-05T15:50:28.619Z,64.50
2017-10-05T15:52:56.530Z,64.50
2017-10-05T15:55:24.852Z,61.30
2017-10-05T15:57:53.220Z,60.70
2017-10-05T16:00:20.773Z,60.50
2017-10-05T16:02:48.448Z,60.40
2017-10-05T16:05:16.027Z,60.40
2017-10-05T16:07:43.596Z,59.70
2017-10-05T16:10:11.136Z,59.50
2017-10-05T16:12:38.677Z,59.10
2017-10-05T16:15:06.293Z,59.10
2017-10-05T16:17:34.606Z,58.40
2017-10-05T16:20:02.173Z,58.40
2017-10-05T16:22:29.706Z,58.20
2017-10-05T16:24:58.007Z,58.20
2017-10-05T16:27:25.558Z,58.30
2017-10-05T16:29:53.838Z,58.10
2017-10-05T16:32:22.159Z,58.00
2017-10-05T16:34:49.838Z,58.00
2017-10-05T16:37:17.435Z,56.80
2017-10-05T16:39:45.785Z,57.40
2017-10-05T16:42:13.330Z,57.40
2017-10-05T16:44:40.864Z,57.50
2017-10-05T16:47:08.421Z,57.40
2017-10-05T16:49:35.948Z,57.30
2017-10-05T16:52:04.292Z,57.10
2017-10-05T16:54:31.857Z,57.10
2017-10-05T16:56:59.473Z,57.40
2017-10-05T16:59:27.009Z,57.10
2017-10-05T17:01:55.436Z,56.90
2017-10-05T17:04:22.987Z,56.90
2017-10-05T17:06:50.548Z,56.60
2017-10-05T17:09:18.076Z,56.70
2017-10-05T17:11:46.064Z,56.50
2017-10-05T17:14:13.710Z,56.50
2017-10-05T17:16:42.021Z,56.60
2017-10-05T17:19:09.853Z,56.50
2017-10-05T17:21:38.160Z,56.80
2017-10-05T17:24:05.734Z,56.80
2017-10-05T17:26:33.556Z,56.60
2017-10-05T17:29:01.100Z,56.50
2017-10-05T17:31:29.076Z,56.50
2017-10-05T17:33:57.122Z,56.70
2017-10-05T17:36:24.658Z,56.40
2017-10-05T17:38:52.214Z,56.20
2017-10-05T17:41:20.136Z,55.80
2017-10-05T17:43:48.104Z,55.50
2017-10-05T17:46:16.430Z,55.50
2017-10-05T17:48:44.360Z,55.50
2017-10-05T17:51:11.887Z,55.60
2017-10-05T17:53:39.411Z,55.50
2017-10-05T17:56:07.253Z,55.40
2017-10-05T17:58:35.799Z,55.60
2017-10-05T18:01:03.315Z,55.60
2017-10-05T18:03:30.879Z,55.70
2017-10-05T18:05:58.436Z,55.80
2017-10-05T18:08:25.992Z,55.90
2017-10-05T18:10:53.548Z,55.90
2017-10-05T18:13:22.158Z,55.90
2017-10-05T18:15:49.691Z,55.90
2017-10-05T18:18:17.282Z,56.00
2017-10-05T18:20:44.937Z,56.00
2017-10-05T18:23:12.451Z,56.00
2017-10-05T18:25:40.030Z,56.10
2017-10-05T18:28:08.323Z,56.30
2017-10-05T18:30:36.644Z,56.40
2017-10-05T18:33:04.237Z,57.10
2017-10-05T18:35:31.894Z,56.60
2017-10-05T18:37:59.433Z,57.40
2017-10-05T18:40:27.016Z,57.00
2017-10-05T18:42:54.552Z,57.90
2017-10-05T18:45:22.119Z,57.90
2017-10-05T18:47:49.716Z,57.90
2017-10-05T18:50:17.368Z,57.90
2017-10-05T18:52:44.897Z,58.00
2017-10-05T18:55:13.351Z,58.20
2017-10-05T18:57:41.119Z,58.10
2017-10-05T19:00:08.769Z,58.50
2017-10-05T19:02:36.310Z,58.50
2017-10-05T19:05:04.663Z,58.60
2017-10-05T19:07:32.219Z,58.60
2017-10-05T19:09:59.764Z,58.80
2017-10-05T19:12:27.292Z,58.90
2017-10-05T19:14:54.862Z,59.00
2017-10-05T19:17:22.462Z,59.10
2017-10-05T19:19:50.248Z,59.20
2017-10-05T19:22:18.593Z,59.50
2017-10-05T19:24:46.149Z,59.50
2017-10-05T19:27:13.668Z,59.70
2017-10-05T19:29:41.680Z,59.80
2017-10-05T19:32:09.291Z,59.80
2017-10-05T19:34:37.686Z,59.80
2017-10-05T19:37:05.412Z,60.00
2017-10-05T19:39:33.301Z,60.00
2017-10-05T19:42:01.047Z,60.50
2017-10-05T19:44:28.837Z,60.30
2017-10-05T19:46:56.570Z,60.50
2017-10-05T19:49:24.155Z,60.90
2017-10-05T19:51:52.473Z,62.00
2017-10-05T19:54:20.056Z,61.90
2017-10-05T19:56:47.849Z,62.50
2017-10-05T19:59:15.407Z,62.80
2017-10-05T20:01:42.970Z,63.40
2017-10-05T20:04:10.482Z,63.70
2017-10-05T20:06:38.061Z,63.90
2017-10-05T20:09:05.679Z,64.20
2017-10-05T20:11:33.251Z,64.40
2017-10-05T20:14:02.384Z,64.60
2017-10-05T20:16:33.965Z,64.70
2017-10-05T20:19:01.618Z,64.70
2017-10-05T20:21:33.510Z,64.40
2017-10-05T20:24:05.682Z,64.30
2017-10-05T20:39:55.834Z,63.20
2017-10-05T20:42:24.493Z,63.10
2017-10-05T20:44:52.049Z,63.10
2017-10-05T20:47:19.575Z,63.10
2017-10-05T20:49:48.202Z,63.10
2017-10-05T20:52:15.801Z,63.10
2017-10-05T20:54:44.129Z,63.40
2017-10-05T20:57:11.942Z,63.30
2017-10-05T20:59:39.517Z,63.40
2017-10-05T21:02:07.838Z,63.50
2017-10-05T21:04:35.779Z,63.40
2017-10-05T21:07:03.377Z,63.50
2017-10-05T21:09:31.492Z,63.50
2017-10-05T21:12:00.130Z,63.50
2017-10-05T21:14:27.731Z,63.50
2017-10-05T21:16:55.414Z,63.50
2017-10-05T21:19:23.338Z,63.50
2017-10-05T21:21:50.926Z,63.50
2017-10-05T21:24:18.504Z,63.40
2017-10-05T21:26:47.403Z,63.30
2017-10-05T21:29:15.002Z,63.40
2017-10-05T21:31:42.587Z,63.40
2017-10-05T21:34:10.568Z,63.30
2017-10-05T21:36:38.571Z,63.40
2017-10-05T21:39:06.229Z,63.30
2017-10-05T21:41:35.052Z,63.00
2017-10-05T21:44:02.603Z,63.00
2017-10-05T21:46:30.178Z,63.00
2017-10-05T21:48:58.045Z,63.00
2017-10-05T21:51:25.563Z,63.00
2017-10-05T21:53:53.119Z,63.00
2017-10-05T21:56:21.147Z,62.90
2017-10-05T21:58:48.664Z,62.90
2017-10-05T22:01:16.977Z,63.10
2017-10-05T22:03:44.948Z,63.20
2017-10-05T22:06:12.502Z,63.30
2017-10-05T22:08:40.058Z,63.30
2017-10-05T22:11:07.926Z,63.20
2017-10-05T22:13:35.444Z,63.30
2017-10-05T22:16:03.022Z,63.20
2017-10-05T22:18:30.898Z,63.20
2017-10-05T22:20:58.448Z,63.20
2017-10-05T22:23:26.164Z,62.90
2017-10-05T22:25:53.998Z,62.80
2017-10-05T22:28:21.541Z,62.50
2017-10-05T22:30:49.069Z,62.50
2017-10-05T22:33:16.998Z,62.40
2017-10-05T22:35:44.520Z,62.40
2017-10-05T22:38:12.117Z,62.30
2017-10-05T22:40:39.990Z,62.20
2017-10-05T22:43:07.499Z,62.10
2017-10-05T22:45:35.035Z,61.80
2017-10-05T22:48:02.857Z,61.80
2017-10-05T22:50:30.393Z,61.70
2017-10-05T22:52:58.730Z,61.70
2017-10-05T22:55:26.584Z,61.70
2017-10-05T22:57:54.121Z,61.70
2017-10-05T23:00:21.630Z,61.70
2017-10-05T23:02:49.454Z,61.60
2017-10-05T23:05:16.979Z,61.60
2017-10-05T23:07:44.546Z,61.50
2017-10-05T23:10:13.168Z,62.10
2017-10-05T23:12:40.702Z,61.40
2017-10-05T23:15:08.993Z,61.30
2017-10-05T23:17:36.883Z,61.30
2017-10-05T23:20:04.399Z,61.20
2017-10-05T23:22:32.711Z,61.40
2017-10-05T23:25:00.585Z,61.40
2017-10-05T23:27:28.089Z,61.30
2017-10-05T23:29:55.615Z,61.50
2017-10-05T23:32:23.492Z,61.50
2017-10-05T23:34:51.007Z,61.70
2017-10-05T23:37:19.301Z,61.70
2017-10-05T23:39:47.155Z,61.70
2017-10-05T23:42:15.430Z,61.80
2017-10-05T23:44:42.990Z,61.80
2017-10-05T23:47:11.624Z,61.80
2017-10-05T23:49:39.163Z,61.90
2017-10-05T23:52:07.267Z,61.90
2017-10-05T23:54:35.114Z,61.90
2017-10-05T23:57:02.627Z,61.80
2017-10-05T23:59:30.946Z,61.80
